Time;durP1;ratioP1;P1;durP2;ratioP2;P2;SDS_P1;SDS_P2;PMS_P1;PMS_P2;Temp;Humidity;BMP_temperature;BMP_pressure;BME280_temperature;BME280_humidity;BME280_pressure;Samples;Min_cycle;Max_cycle;Signal;HPM_P1;HPM_P2
2021/03/30 00:00:07;;;;;;;14.85;7.78;;;;;;;7.36;89.94;98028.98;1776976;79;21459;-84
2021/03/30 00:02:36;;;;;;;12.45;7.37;;;;;;;7.42;90.68;98033.35;1782677;79;21533;-84
2021/03/30 00:05:05;;;;;;;14.10;7.53;;;;;;;7.48;90.94;98025.88;1768738;80;21521;-84
2021/03/30 00:07:32;;;;;;;14.30;8.50;;;;;;;7.52;90.81;98033.63;1783684;79;21488;-84
2021/03/30 00:09:59;;;;;;;14.63;8.20;;;;;;;7.54;90.05;98024.97;1779708;79;21546;-84
2021/03/30 00:12:27;;;;;;;13.30;7.58;;;;;;;7.57;89.58;98028.99;1782146;79;21138;-84
2021/03/30 00:14:54;;;;;;;12.68;7.17;;;;;;;7.59;89.35;98026.42;1786559;79;21492;-84
2021/03/30 00:17:21;;;;;;;10.78;5.97;;;;;;;7.61;89.20;98022.27;1783365;80;21123;-84
2021/03/30 00:19:48;;;;;;;15.35;7.22;;;;;;;7.64;89.10;98023.12;1783875;79;21513;-84
2021/03/30 00:22:15;;;;;;;12.45;7.75;;;;;;;7.64;88.94;98018.66;1782989;79;21147;-84
2021/03/30 00:24:42;;;;;;;12.73;7.20;;;;;;;7.65;88.81;98011.02;1779814;79;21495;-84
2021/03/30 00:27:09;;;;;;;12.55;6.78;;;;;;;7.64;88.92;98008.61;1786842;79;21139;-84
2021/03/30 00:29:43;;;;;;;13.85;7.25;;;;;;;7.61;88.88;98005.11;1793916;79;21440;-84
2021/03/30 00:32:13;;;;;;;9.40;6.53;;;;;;;7.62;88.85;98008.84;1791288;79;21163;-84
2021/03/30 00:34:40;;;;;;;10.68;6.70;;;;;;;7.63;88.81;98009.13;1769872;79;21134;-84
2021/03/30 00:37:08;;;;;;;11.40;6.83;;;;;;;7.63;88.72;98005.17;1784167;78;21080;-84
2021/03/30 00:39:35;;;;;;;9.93;6.28;;;;;;;7.62;88.84;98004.87;1804681;78;21083;-84
2021/03/30 00:42:02;;;;;;;14.38;6.87;;;;;;;7.59;89.40;98003.98;1789010;79;21123;-84
2021/03/30 00:44:29;;;;;;;14.80;7.05;;;;;;;7.58;89.12;98011.61;1782382;80;21479;-84
2021/03/30 00:46:57;;;;;;;12.20;6.75;;;;;;;7.58;89.21;98008.98;1805678;78;21482;-84
2021/03/30 00:49:25;;;;;;;13.32;7.45;;;;;;;7.54;89.31;98010.46;1781161;79;21124;-84
2021/03/30 00:51:52;;;;;;;10.68;6.60;;;;;;;7.51;89.96;98008.80;1785039;78;21157;-84
2021/03/30 00:54:19;;;;;;;10.48;6.95;;;;;;;7.47;90.48;98007.13;1754319;81;21138;-84
2021/03/30 00:56:46;;;;;;;10.80;5.75;;;;;;;7.42;90.29;98004.33;1791433;79;21456;-84
2021/03/30 00:59:16;;;;;;;12.35;7.40;;;;;;;7.42;91.14;98004.33;1790372;79;21099;-84
2021/03/30 01:01:45;;;;;;;10.58;6.33;;;;;;;7.41;91.54;98006.68;1766962;79;21091;-84
2021/03/30 01:04:13;;;;;;;11.22;6.75;;;;;;;7.38;91.75;98005.30;1759325;80;21551;-84
2021/03/30 01:06:40;;;;;;;11.45;7.03;;;;;;;7.38;91.44;98012.41;1762148;81;21472;-84
2021/03/30 01:09:51;;;;;;;10.08;6.83;;;;;;;7.39;91.70;98004.78;1773263;80;21172;-84
2021/03/30 01:12:44;;;;;;;10.30;6.10;;;;;;;7.41;91.48;98005.36;1768493;80;21123;-84
2021/03/30 01:15:22;;;;;;;11.30;7.40;;;;;;;7.44;91.40;98002.27;1791481;79;21195;-85
2021/03/30 01:17:58;;;;;;;11.43;7.15;;;;;;;7.44;91.09;98018.09;1785856;78;21092;-85
2021/03/30 01:21:02;;;;;;;12.75;7.78;;;;;;;7.43;90.93;98005.94;1765514;80;21110;-85
2021/03/30 01:24:02;;;;;;;12.37;7.58;;;;;;;7.45;90.90;98006.52;1745432;80;21159;-85
2021/03/30 01:26:50;;;;;;;11.18;7.70;;;;;;;7.47;90.66;98001.84;1781304;80;21115;-84
2021/03/30 01:29:26;;;;;;;9.40;7.05;;;;;;;7.46;90.69;97989.69;1801010;79;21259;-84
2021/03/30 01:32:03;;;;;;;11.08;7.60;;;;;;;7.43;90.86;97986.95;1765263;80;21178;-84
2021/03/30 01:34:33;;;;;;;11.18;7.58;;;;;;;7.44;90.89;97979.84;1750432;80;21626;-84
2021/03/30 01:37:02;;;;;;;13.65;6.80;;;;;;;7.42;91.59;97973.98;1782272;80;21138;-84
2021/03/30 01:39:30;;;;;;;9.45;5.83;;;;;;;7.45;92.24;97980.94;1752478;80;21145;-84
2021/03/30 01:41:58;;;;;;;9.28;6.20;;;;;;;7.48;92.86;97971.79;1778724;80;21194;-84
2021/03/30 01:44:27;;;;;;;11.43;6.78;;;;;;;7.50;93.07;97977.64;1793484;79;21115;-84
2021/03/30 01:46:56;;;;;;;6.72;5.08;;;;;;;7.48;92.74;97979.70;1792288;80;21119;-84
2021/03/30 01:49:25;;;;;;;11.40;5.85;;;;;;;7.49;93.16;97981.31;1786234;80;21507;-84
2021/03/30 01:51:53;;;;;;;9.65;6.20;;;;;;;7.56;93.77;97972.77;1769456;80;21190;-84
2021/03/30 01:54:22;;;;;;;7.12;5.78;;;;;;;7.59;93.96;97977.59;1780171;80;21537;-84
2021/03/30 01:56:54;;;;;;;11.65;7.15;;;;;;;7.61;93.94;97983.99;1787168;80;21135;-84
2021/03/30 01:59:24;;;;;;;6.53;4.92;;;;;;;7.59;93.96;97982.88;1769264;80;21138;-84
2021/03/30 02:01:52;;;;;;;8.53;5.58;;;;;;;7.62;94.47;97974.53;1786866;80;21167;-84
2021/03/30 02:04:23;;;;;;;8.23;4.92;;;;;;;7.64;94.64;97969.83;1815079;77;21229;-85
2021/03/30 02:06:50;;;;;;;;;;;;;;;7.65;94.78;97967.47;1774027;80;21111;-84
2021/03/30 02:09:24;;;;;;;8.43;5.03;;;;;;;7.68;94.78;97974.13;1773186;80;20152;-85
2021/03/30 02:11:54;;;;;;;8.03;5.67;;;;;;;7.63;94.62;97973.50;1771296;80;21119;-85
2021/03/30 02:14:21;;;;;;;9.47;6.30;;;;;;;7.60;94.39;97971.31;1782713;79;21456;-84
2021/03/30 02:16:54;;;;;;;12.45;6.92;;;;;;;7.58;94.47;97965.95;1779961;79;21345;-85
2021/03/30 02:19:29;;;;;;;8.55;6.55;;;;;;;7.54;94.46;97973.52;1771686;79;21127;-84
2021/03/30 02:22:05;;;;;;;8.13;6.17;;;;;;;7.53;94.37;97974.55;1783525;79;21668;-85
2021/03/30 02:24:35;;;;;;;9.33;6.92;;;;;;;7.56;94.71;97968.81;1774532;79;21147;-85
2021/03/30 02:27:06;;;;;;;10.88;6.37;;;;;;;7.59;94.78;97963.59;1773508;79;21142;-84
2021/03/30 02:29:36;;;;;;;10.28;6.10;;;;;;;7.58;94.78;97972.03;1777779;79;21485;-85
2021/03/30 02:32:08;;;;;;;10.60;6.25;;;;;;;7.58;94.78;97977.30;1771064;80;21499;-84
2021/03/30 02:34:38;;;;;;;10.10;6.90;;;;;;;7.61;95.11;97964.20;1774788;80;21448;-84
2021/03/30 02:37:06;;;;;;;9.00;6.13;;;;;;;7.64;95.07;97962.42;1777606;79;21133;-84
2021/03/30 02:39:35;;;;;;;7.80;5.30;;;;;;;7.63;94.92;97968.22;1777414;80;21143;-84
2021/03/30 02:42:04;;;;;;;9.43;5.50;;;;;;;7.65;95.14;97958.75;1774294;80;21187;-84
2021/03/30 02:44:34;;;;;;;9.55;6.17;;;;;;;7.67;95.35;97955.37;1778927;80;21521;-85
2021/03/30 02:47:01;;;;;;;7.92;5.58;;;;;;;7.68;95.38;97955.14;1786856;79;21131;-84
2021/03/30 02:49:30;;;;;;;7.42;4.90;;;;;;;7.68;95.52;97951.18;1783632;79;21514;-84
2021/03/30 02:52:00;;;;;;;8.38;4.72;;;;;;;7.71;95.68;97955.20;1781535;79;21167;-85
2021/03/30 02:54:28;;;;;;;6.33;4.35;;;;;;;7.69;95.77;97958.06;1776459;79;21125;-84
2021/03/30 02:57:00;;;;;;;6.20;3.85;;;;;;;7.69;95.84;97959.90;1768512;79;21188;-84
2021/03/30 02:59:29;;;;;;;5.10;3.80;;;;;;;7.66;95.98;97965.13;1774924;80;21091;-85
2021/03/30 03:01:58;;;;;;;5.40;3.58;;;;;;;7.63;96.09;97957.66;1786031;79;21123;-84
2021/03/30 03:04:27;;;;;;;6.97;4.70;;;;;;;7.63;96.09;97965.58;1760924;79;21124;-84
2021/03/30 03:06:56;;;;;;;6.33;4.60;;;;;;;7.62;96.16;97960.02;1787919;79;21092;-85
2021/03/30 03:09:25;;;;;;;6.53;4.53;;;;;;;7.60;96.30;97963.88;1794834;79;21144;-84
2021/03/30 03:11:54;;;;;;;6.05;4.33;;;;;;;7.59;96.25;97960.95;1775554;79;21134;-84
2021/03/30 03:14:23;;;;;;;5.58;3.90;;;;;;;7.59;95.91;97958.31;1784982;79;21088;-84
2021/03/30 03:16:51;;;;;;;4.85;3.67;;;;;;;7.62;96.21;97960.53;1791040;79;21142;-84
2021/03/30 03:19:20;;;;;;;4.78;3.33;;;;;;;7.68;96.12;97967.02;1778350;80;21485;-84
2021/03/30 03:21:49;;;;;;;4.85;3.60;;;;;;;7.68;95.91;97976.77;1775957;79;21503;-84
2021/03/30 03:24:17;;;;;;;4.25;3.50;;;;;;;7.71;95.70;97977.11;1781163;79;21520;-84
2021/03/30 03:26:44;;;;;;;5.22;3.55;;;;;;;7.72;95.85;97972.64;1791352;79;21115;-84
2021/03/30 03:29:20;;;;;;;5.65;4.25;;;;;;;7.73;96.15;97975.05;1777030;79;21508;-85
2021/03/30 03:31:50;;;;;;;6.00;4.30;;;;;;;7.78;96.15;97970.95;1771214;80;21148;-85
2021/03/30 03:34:19;;;;;;;7.53;5.50;;;;;;;7.79;95.69;97978.64;1769875;80;21110;-84
2021/03/30 03:36:50;;;;;;;5.10;4.30;;;;;;;7.71;95.38;97973.67;1774519;80;21104;-85
2021/03/30 03:39:20;;;;;;;6.62;4.28;;;;;;;7.71;95.77;97973.16;1813278;78;21155;-84
2021/03/30 03:41:47;;;;;;;5.17;4.42;;;;;;;7.70;96.01;97974.19;1751512;81;21138;-84
2021/03/30 03:44:15;;;;;;;3.85;3.02;;;;;;;7.71;96.16;97966.55;1780621;79;21456;-84
2021/03/30 03:46:42;;;;;;;10.15;7.75;;;;;;;7.74;96.63;97969.25;1773333;79;21119;-84
2021/03/30 03:49:10;;;;;;;4.53;3.00;;;;;;;7.71;96.36;97971.84;1783328;80;21493;-84
2021/03/30 03:51:46;;;;;;;5.35;3.90;;;;;;;7.70;96.83;97969.42;1778673;80;21139;-84
2021/03/30 03:54:18;;;;;;;4.97;2.80;;;;;;;7.70;96.85;97971.55;1788848;79;21268;-84
2021/03/30 03:56:50;;;;;;;3.58;2.90;;;;;;;7.72;97.23;97963.40;1778807;80;21432;-84
2021/03/30 03:59:31;;;;;;;2.95;2.37;;;;;;;7.80;97.53;97960.97;1773823;80;21088;-84
2021/03/30 04:02:19;;;;;;;5.83;3.33;;;;;;;7.83;97.57;97953.91;1781037;80;21120;-84
2021/03/30 04:04:51;;;;;;;3.12;2.70;;;;;;;7.85;97.54;97959.75;1777366;79;21482;-84
2021/03/30 04:07:22;;;;;;;4.67;3.22;;;;;;;7.84;97.66;97964.23;1798570;79;21108;-84
2021/03/30 04:09:52;;;;;;;4.45;3.62;;;;;;;7.83;97.48;97958.67;1777632;80;21451;-84
2021/03/30 04:12:22;;;;;;;4.22;3.33;;;;;;;7.82;97.20;97956.25;1785724;80;21146;-84
2021/03/30 04:14:49;;;;;;;4.25;3.40;;;;;;;7.81;97.26;97955.45;1783134;79;21497;-85
2021/03/30 04:17:18;;;;;;;5.00;2.95;;;;;;;7.79;97.05;97954.08;1791408;79;21151;-84
2021/03/30 04:19:46;;;;;;;6.75;3.98;;;;;;;7.80;96.75;97962.28;1782783;79;21470;-84
2021/03/30 04:22:14;;;;;;;5.05;3.67;;;;;;;7.76;96.42;97957.17;1781490;79;21301;-84
2021/03/30 04:24:43;;;;;;;5.05;3.95;;;;;;;7.73;96.48;97959.73;1790583;79;21080;-84
2021/03/30 04:27:15;;;;;;;4.05;3.47;;;;;;;7.68;96.54;97957.78;1792281;79;21521;-84
2021/03/30 04:29:44;;;;;;;4.62;3.70;;;;;;;7.64;96.47;97959.27;1773556;80;21534;-84
2021/03/30 04:32:10;;;;;;;4.25;3.30;;;;;;;7.65;96.60;97967.47;1776951;79;21123;-84
2021/03/30 04:34:38;;;;;;;5.37;3.90;;;;;;;7.65;96.50;97972.75;1786765;79;21123;-84
2021/03/30 04:37:05;;;;;;;4.25;3.52;;;;;;;7.68;96.34;97971.49;1777997;79;21111;-85
2021/03/30 04:39:32;;;;;;;4.55;3.83;;;;;;;7.67;96.50;97965.41;1772795;80;21492;-84
2021/03/30 04:41:59;;;;;;;5.12;4.15;;;;;;;7.68;96.57;97970.17;1784254;79;21591;-85
2021/03/30 04:44:26;;;;;;;5.10;4.35;;;;;;;7.68;96.76;97974.13;1778532;80;21544;-84
2021/03/30 04:46:53;;;;;;;5.08;3.60;;;;;;;7.70;96.84;97966.27;1775948;80;21172;-84
2021/03/30 04:49:20;;;;;;;6.40;4.12;;;;;;;7.68;97.09;97968.34;1775341;79;21124;-84
2021/03/30 04:51:47;;;;;;;6.33;4.45;;;;;;;7.68;97.08;97967.02;1793733;79;21143;-84
2021/03/30 04:54:14;;;;;;;5.28;4.10;;;;;;;7.68;97.15;97968.34;1789387;79;21280;-84
2021/03/30 04:56:41;;;;;;;4.83;3.00;;;;;;;7.68;97.37;97968.85;1766635;80;21148;-84
2021/03/30 04:59:08;;;;;;;7.35;4.53;;;;;;;7.66;97.64;97963.80;1780350;79;21156;-84
2021/03/30 05:01:35;;;;;;;5.70;4.45;;;;;;;7.64;97.74;97957.95;1779075;80;21156;-84
2021/03/30 05:04:02;;;;;;;5.87;4.65;;;;;;;7.63;97.89;97958.98;1768789;80;21108;-84
2021/03/30 05:06:29;;;;;;;7.37;5.08;;;;;;;7.64;98.19;97958.47;1776859;79;21475;-84
2021/03/30 05:08:57;;;;;;;5.53;4.33;;;;;;;7.64;98.40;97959.27;1779585;79;21115;-84
2021/03/30 05:11:25;;;;;;;5.97;5.20;;;;;;;7.64;98.44;97954.50;1760370;80;21298;-84
2021/03/30 05:13:52;;;;;;;7.72;5.60;;;;;;;7.66;98.54;97959.84;1795797;79;21123;-85
2021/03/30 05:16:19;;;;;;;7.33;5.92;;;;;;;7.68;98.61;97962.25;1781931;80;21110;-84
2021/03/30 05:18:46;;;;;;;6.97;4.22;;;;;;;7.70;98.66;97966.78;1791818;79;21475;-85
2021/03/30 05:21:13;;;;;;;8.23;5.12;;;;;;;7.72;98.80;97960.77;1771591;79;21150;-84
2021/03/30 05:23:40;;;;;;;6.22;4.58;;;;;;;7.72;98.72;97957.61;1774782;79;21106;-85
2021/03/30 05:26:07;;;;;;;8.83;5.45;;;;;;;7.73;98.81;97968.45;1772857;80;21118;-84
2021/03/30 05:28:34;;;;;;;7.55;5.10;;;;;;;7.74;98.94;97967.45;1776074;79;21091;-85
2021/03/30 05:31:01;;;;;;;6.90;5.55;;;;;;;7.74;98.83;97974.53;1773059;79;21104;-84
2021/03/30 05:33:28;;;;;;;8.33;6.22;;;;;;;7.74;98.79;97987.25;1771563;79;21460;-84
2021/03/30 05:35:55;;;;;;;7.42;6.30;;;;;;;7.76;98.67;97982.25;1781715;79;21206;-84
2021/03/30 05:38:22;;;;;;;9.45;7.15;;;;;;;7.76;98.42;97988.86;1771680;80;21148;-84
2021/03/30 05:40:50;;;;;;;7.78;6.03;;;;;;;7.78;98.23;97986.27;1778929;80;21152;-85
2021/03/30 05:43:18;;;;;;;8.95;6.15;;;;;;;7.82;98.37;97990.58;1794294;79;21121;-84
2021/03/30 05:45:46;;;;;;;9.68;6.22;;;;;;;7.84;98.12;97993.79;1775736;79;21136;-84
2021/03/30 05:48:13;;;;;;;9.98;6.78;;;;;;;7.87;98.10;97998.09;1791511;79;21143;-85
2021/03/30 05:50:41;;;;;;;8.33;5.08;;;;;;;7.89;97.96;97991.30;1780368;80;21111;-85
2021/03/30 05:53:13;;;;;;;9.95;7.15;;;;;;;7.94;98.23;97998.02;1767951;80;21145;-86
2021/03/30 05:55:45;;;;;;;7.40;4.28;;;;;;;7.94;98.28;98000.14;1766666;80;21118;-85
2021/03/30 05:58:13;;;;;;;8.55;5.97;;;;;;;7.94;98.48;97992.73;1761881;79;21173;-86
2021/03/30 06:00:44;;;;;;;9.30;6.92;;;;;;;7.94;98.66;98000.66;1758127;80;21525;-84
2021/03/30 06:03:18;;;;;;;9.20;7.05;;;;;;;7.96;98.67;98002.55;1766966;80;21135;-83
2021/03/30 06:05:45;;;;;;;9.93;7.20;;;;;;;7.96;98.76;97996.75;1794602;79;21117;-83
2021/03/30 06:08:12;;;;;;;10.03;6.65;;;;;;;8.00;98.73;97999.73;1774710;78;21132;-84
2021/03/30 06:10:39;;;;;;;9.60;6.92;;;;;;;8.00;98.77;97999.73;1767625;80;21127;-84
2021/03/30 06:13:08;;;;;;;9.80;6.53;;;;;;;8.05;98.85;97997.23;1767583;79;21119;-84
2021/03/30 06:15:36;;;;;;;9.93;7.37;;;;;;;8.07;98.69;97997.80;1785440;79;21490;-84
2021/03/30 06:18:21;;;;;;;10.03;7.33;;;;;;;8.10;98.53;97996.02;1778307;80;21326;-84
2021/03/30 06:20:50;;;;;;;11.68;7.58;;;;;;;8.14;98.35;98004.29;1780124;79;21076;-85
2021/03/30 06:23:28;;;;;;;7.03;4.67;;;;;;;8.16;98.19;98007.50;1778292;80;21119;-84
2021/03/30 06:25:56;;;;;;;9.30;6.20;;;;;;;8.20;98.26;98001.55;1779465;79;21530;-85
2021/03/30 06:28:29;;;;;;;10.32;7.22;;;;;;;8.21;98.07;98012.41;1783479;79;21160;-84
2021/03/30 06:31:10;;;;;;;7.75;5.83;;;;;;;8.25;98.02;98014.88;1783164;79;21188;-85
2021/03/30 06:33:57;;;;;;;11.25;7.80;;;;;;;8.30;97.97;98022.11;1772729;80;21133;-85
2021/03/30 06:36:32;;;;;;;10.32;7.47;;;;;;;8.32;97.72;98016.91;1776244;79;21501;-85
2021/03/30 06:39:06;;;;;;;8.90;7.25;;;;;;;8.35;97.53;98026.76;1794349;79;21725;-85
2021/03/30 06:41:43;;;;;;;9.40;7.03;;;;;;;8.38;97.51;98035.02;1776280;80;21258;-85
2021/03/30 06:44:25;;;;;;;10.18;7.25;;;;;;;8.41;97.19;98035.88;1769076;80;21475;-85
2021/03/30 06:49:52;;;;;;;11.03;8.58;;;;;;;8.51;96.84;98029.52;1854406;76;38220;-84
2021/03/30 06:52:24;;;;;;;9.18;7.67;;;;;;;8.52;96.62;98030.31;1833275;76;21260;-85
2021/03/30 06:55:02;;;;;;;9.03;7.30;;;;;;;8.51;96.65;98036.64;1837222;77;21490;-85
2021/03/30 06:57:44;;;;;;;8.65;6.58;;;;;;;8.50;96.58;98041.64;1847313;77;21611;-85
2021/03/30 07:00:29;;;;;;;11.20;6.83;;;;;;;8.50;96.57;98044.28;1842104;77;21094;-85
2021/03/30 07:03:03;;;;;;;10.72;7.22;;;;;;;8.47;96.82;98048.20;1787414;77;21137;-84
2021/03/30 07:05:43;;;;;;;12.33;7.83;;;;;;;8.45;96.74;98044.98;1861625;77;21152;-84
2021/03/30 07:08:17;;;;;;;8.40;5.90;;;;;;;8.47;96.69;98049.52;1863259;77;21451;-85
2021/03/30 07:10:55;;;;;;;12.25;7.75;;;;;;;8.48;96.66;98053.77;1835482;77;21512;-84
2021/03/30 07:13:26;;;;;;;10.03;7.65;;;;;;;8.49;96.72;98052.73;1846331;77;21246;-85
2021/03/30 07:16:06;;;;;;;9.33;7.17;;;;;;;8.49;96.82;98048.77;1835807;77;21948;-85
2021/03/30 07:18:42;;;;;;;10.48;8.28;;;;;;;8.50;96.95;98042.44;1850246;77;21110;-85
2021/03/30 07:21:21;;;;;;;11.95;9.20;;;;;;;8.50;96.94;98042.97;1846380;76;21506;-85
2021/03/30 07:23:59;;;;;;;10.03;7.37;;;;;;;8.51;96.83;98037.45;1860298;77;21088;-85
2021/03/30 07:26:37;;;;;;;13.95;7.25;;;;;;;8.54;96.80;98043.59;1832412;77;21219;-84
2021/03/30 07:29:11;;;;;;;10.13;7.45;;;;;;;8.56;97.11;98048.13;1846288;77;21096;-84
2021/03/30 07:32:09;;;;;;;12.20;8.43;;;;;;;8.54;97.17;98040.95;1825405;77;21120;-85
2021/03/30 07:34:53;;;;;;;12.75;8.28;;;;;;;8.57;97.43;98043.13;1837099;77;21091;-85
2021/03/30 07:37:32;;;;;;;12.23;9.13;;;;;;;8.61;97.45;98043.48;1832788;77;21204;-85
2021/03/30 07:40:01;;;;;;;11.97;8.90;;;;;;;8.62;97.41;98049.06;1858385;76;21180;-85
2021/03/30 07:42:30;;;;;;;12.65;8.78;;;;;;;8.65;97.71;98052.56;1850851;76;21479;-85
2021/03/30 07:44:58;;;;;;;10.88;8.25;;;;;;;8.65;97.74;98045.15;1841352;76;21119;-85
2021/03/30 07:47:27;;;;;;;10.78;8.40;;;;;;;8.64;97.64;98049.63;1853010;76;21132;-85
2021/03/30 07:49:55;;;;;;;9.18;7.10;;;;;;;8.66;97.71;98047.55;1813971;78;21134;-85
2021/03/30 07:52:29;;;;;;;11.45;8.58;;;;;;;8.69;97.81;98043.64;1768039;80;21120;-85
2021/03/30 07:55:17;;;;;;;12.25;8.45;;;;;;;8.72;98.11;98045.30;1781193;79;21172;-86
2021/03/30 07:58:11;;;;;;;10.68;8.40;;;;;;;8.73;97.82;98050.91;1778040;79;21149;-85
2021/03/30 08:00:45;;;;;;;9.90;7.40;;;;;;;8.77;97.84;98041.47;1788211;78;21099;-85
2021/03/30 08:03:24;;;;;;;11.28;8.05;;;;;;;8.77;97.77;98044.11;1777280;80;21134;-85
2021/03/30 08:06:23;;;;;;;12.15;7.65;;;;;;;8.76;97.57;98043.83;1777774;79;21100;-85
2021/03/30 08:09:04;;;;;;;11.73;8.28;;;;;;;8.76;97.72;98042.50;1796581;79;21103;-85
2021/03/30 08:11:46;;;;;;;14.40;8.30;;;;;;;8.79;97.90;98037.27;1759031;80;21164;-85
2021/03/30 08:14:28;;;;;;;13.60;7.97;;;;;;;8.86;98.00;98043.22;1768218;80;21107;-85
2021/03/30 08:16:57;;;;;;;13.75;8.53;;;;;;;8.95;98.39;98043.16;1778196;79;21166;-85
2021/03/30 08:19:28;;;;;;;12.40;8.48;;;;;;;9.02;98.55;98041.22;1773205;79;21123;-85
2021/03/30 08:22:07;;;;;;;12.20;9.20;;;;;;;9.07;98.54;98040.51;1786841;79;21602;-85
2021/03/30 08:24:51;;;;;;;14.33;9.83;;;;;;;9.08;98.50;98039.47;1777958;79;21609;-85
2021/03/30 08:27:38;;;;;;;12.80;8.18;;;;;;;9.13;98.47;98043.53;1765097;80;21279;-85
2021/03/30 08:30:18;;;;;;;13.40;8.85;;;;;;;9.15;98.46;98043.61;1777138;79;21072;-84
2021/03/30 08:32:49;;;;;;;13.72;8.98;;;;;;;9.18;98.38;98054.23;1759266;80;21158;-85
2021/03/30 08:35:34;;;;;;;16.00;9.25;;;;;;;9.18;98.26;98051.07;1781109;80;21142;-85
2021/03/30 08:38:04;;;;;;;29.25;17.73;;;;;;;9.19;98.35;98048.70;1789932;79;21128;-85
2021/03/30 08:40:40;;;;;;;26.30;17.25;;;;;;;9.20;98.32;98049.52;1754888;80;21132;-85
2021/03/30 08:43:20;;;;;;;34.88;20.02;;;;;;;9.21;98.42;98050.59;1791405;79;21113;-85
2021/03/30 08:46:08;;;;;;;31.20;17.90;;;;;;;9.25;97.99;98041.66;1798627;79;21127;-85
2021/03/30 08:48:48;;;;;;;16.90;9.63;;;;;;;9.25;97.99;98041.66;1766711;80;21983;-86
2021/03/30 08:51:17;;;;;;;;;;;;;;;9.33;98.03;98043.96;1770025;79;21134;-86
2021/03/30 08:53:48;;;;;;;9.33;6.92;;;;;;;9.41;97.65;98036.95;1785103;79;20409;-86
2021/03/30 08:56:21;;;;;;;;;;;;;;;9.48;97.08;98042.93;1762592;80;21497;-86
2021/03/30 08:58:52;;;;;;;15.93;10.00;;;;;;;9.54;96.96;98045.14;1765680;80;20114;-86
2021/03/30 09:01:23;;;;;;;15.53;9.05;;;;;;;9.63;97.00;98042.94;1757989;80;21175;-86
2021/03/30 09:03:54;;;;;;;22.87;15.10;;;;;;;9.69;96.43;98044.63;1766256;80;21142;-86
2021/03/30 09:06:34;;;;;;;16.65;11.15;;;;;;;9.72;95.84;98046.82;1766085;79;21129;-86
2021/03/30 09:09:03;;;;;;;14.65;10.48;;;;;;;9.78;95.80;98047.19;1762514;79;21154;-85
2021/03/30 09:11:35;;;;;;;16.30;11.48;;;;;;;9.83;95.52;98045.42;1798481;79;21170;-85
2021/03/30 09:14:10;;;;;;;16.10;10.25;;;;;;;9.89;95.42;98041.03;1793873;79;21158;-85
2021/03/30 09:16:44;;;;;;;17.52;10.90;;;;;;;9.99;95.34;98034.59;1760796;79;21092;-86
2021/03/30 09:19:32;;;;;;;16.02;10.20;;;;;;;10.10;94.96;98033.70;1777472;79;21106;-86
2021/03/30 09:22:06;;;;;;;15.13;8.83;;;;;;;10.22;94.63;98038.16;1771177;79;21498;-85
2021/03/30 09:24:52;;;;;;;15.85;9.78;;;;;;;10.34;94.13;98037.56;1767659;79;21080;-85
2021/03/30 09:27:32;;;;;;;14.30;9.93;;;;;;;10.41;93.46;98034.22;1769146;80;21134;-86
2021/03/30 09:30:05;;;;;;;14.83;10.80;;;;;;;10.50;93.50;98037.27;1768800;80;21156;-86
2021/03/30 09:32:35;;;;;;;15.18;10.78;;;;;;;10.53;93.24;98038.11;1780728;79;21126;-85
2021/03/30 09:35:14;;;;;;;14.60;9.80;;;;;;;10.57;92.65;98044.55;1743813;79;21076;-86
2021/03/30 09:37:56;;;;;;;13.20;9.48;;;;;;;10.57;92.45;98046.69;1762567;80;21134;-85
2021/03/30 09:40:31;;;;;;;14.98;11.35;;;;;;;10.57;92.65;98046.69;1782846;79;21475;-86
2021/03/30 09:43:01;;;;;;;15.83;10.68;;;;;;;10.57;92.81;98042.70;1762707;80;21574;-86
2021/03/30 09:45:32;;;;;;;16.40;9.70;;;;;;;10.64;92.54;98047.30;1772999;79;21496;-85
2021/03/30 09:50:51;;;;;;;15.05;9.88;;;;;;;10.79;91.74;98041.94;1820438;78;22440;-85
2021/03/30 09:53:20;;;;;;;14.53;9.68;;;;;;;10.84;91.84;98043.33;1765700;81;21631;-85
2021/03/30 09:55:48;;;;;;;12.95;8.88;;;;;;;10.89;90.45;98044.22;1747516;81;21453;-85
2021/03/30 09:58:18;;;;;;;16.37;9.95;;;;;;;10.90;90.05;98044.49;1752458;81;21486;-85
2021/03/30 10:00:56;;;;;;;13.83;9.68;;;;;;;10.99;90.32;98042.23;1759816;81;21614;-85
2021/03/30 10:03:29;;;;;;;14.25;10.80;;;;;;;11.04;90.21;98042.81;1763515;81;21132;-86
2021/03/30 10:05:59;;;;;;;14.85;9.28;;;;;;;11.06;90.21;98041.52;1754968;81;21133;-86
2021/03/30 10:08:29;;;;;;;17.17;10.85;;;;;;;11.07;89.92;98037.01;1745635;81;21139;-85
2021/03/30 10:11:00;;;;;;;16.23;11.35;;;;;;;11.04;89.93;98040.96;1759540;81;21141;-86
2021/03/30 10:13:36;;;;;;;14.87;10.85;;;;;;;11.01;90.25;98045.44;1764561;80;21097;-85
2021/03/30 10:16:10;;;;;;;17.10;12.10;;;;;;;10.93;89.98;98042.67;1760514;81;21615;-85
2021/03/30 10:18:43;;;;;;;14.13;10.72;;;;;;;10.89;89.65;98036.25;1752236;81;21141;-86
2021/03/30 10:21:18;;;;;;;21.62;12.73;;;;;;;10.91;90.21;98038.66;1748386;81;21112;-85
2021/03/30 10:23:49;;;;;;;17.70;12.25;;;;;;;10.93;90.35;98037.89;1760774;81;21112;-85
2021/03/30 10:26:22;;;;;;;16.62;12.30;;;;;;;10.98;90.32;98039.30;1751531;81;21141;-85
2021/03/30 10:28:58;;;;;;;18.00;11.10;;;;;;;11.05;90.21;98039.11;1753551;81;21169;-86
2021/03/30 10:31:39;;;;;;;17.55;12.73;;;;;;;11.10;90.03;98041.30;1755047;81;21267;-86
2021/03/30 10:34:24;;;;;;;15.68;12.07;;;;;;;11.23;90.19;98039.60;1745112;81;21117;-85
2021/03/30 10:36:55;;;;;;;20.65;13.03;;;;;;;11.27;89.51;98042.06;1729748;81;21460;-86
2021/03/30 10:39:37;;;;;;;19.00;13.30;;;;;;;11.21;89.55;98036.92;1762442;81;21311;-86
2021/03/30 10:42:13;;;;;;;17.52;12.78;;;;;;;11.22;89.87;98039.33;1756899;81;21630;-85
2021/03/30 10:44:53;;;;;;;18.98;12.15;;;;;;;11.29;89.96;98041.28;1756315;81;21571;-85
2021/03/30 10:47:37;;;;;;;18.52;12.80;;;;;;;11.20;89.44;98036.13;1752461;81;21639;-84
2021/03/30 10:50:11;;;;;;;17.52;12.68;;;;;;;11.15;89.55;98047.21;1757874;81;21106;-85
2021/03/30 10:52:39;;;;;;;23.20;14.00;;;;;;;11.09;89.93;98048.98;1748058;81;21096;-85
2021/03/30 10:55:12;;;;;;;17.57;12.07;;;;;;;11.09;90.10;98048.98;1755552;81;21172;-85
2021/03/30 10:57:46;;;;;;;18.70;12.05;;;;;;;11.10;90.09;98052.44;1743170;81;21126;-85
2021/03/30 11:00:17;;;;;;;14.75;9.68;;;;;;;11.14;89.96;98045.08;1752978;81;21231;-85
2021/03/30 11:02:45;;;;;;;17.48;11.05;;;;;;;11.15;88.83;98041.91;1760685;81;21123;-85
2021/03/30 11:05:15;;;;;;;20.35;11.68;;;;;;;11.14;88.23;98042.42;1750755;81;21142;-85
2021/03/30 11:07:46;;;;;;;15.53;10.63;;;;;;;11.15;88.58;98046.69;1754030;81;21108;-85
2021/03/30 11:10:14;;;;;;;16.25;11.65;;;;;;;11.19;88.89;98046.98;1767221;81;21177;-85
2021/03/30 11:12:42;;;;;;;20.65;13.83;;;;;;;11.23;89.02;98052.08;1761029;81;21266;-85
2021/03/30 11:15:12;;;;;;;21.55;14.87;;;;;;;11.28;89.41;98042.34;1760060;81;21123;-85
2021/03/30 11:17:39;;;;;;;20.43;15.25;;;;;;;11.33;89.69;98052.73;1751961;81;21124;-85
2021/03/30 11:20:12;;;;;;;22.42;14.75;;;;;;;11.28;89.92;98043.66;1763273;81;21242;-85
2021/03/30 11:22:44;;;;;;;21.75;15.53;;;;;;;11.27;90.05;98049.22;1759501;81;21265;-85
2021/03/30 11:25:12;;;;;;;20.77;15.10;;;;;;;11.22;90.12;98048.62;1757877;81;21257;-85
2021/03/30 11:27:44;;;;;;;21.25;13.43;;;;;;;11.22;90.59;98051.27;1754930;81;21520;-85
2021/03/30 11:30:15;;;;;;;19.82;14.30;;;;;;;11.23;90.86;98048.89;1756180;81;21128;-85
2021/03/30 11:32:46;;;;;;;22.07;15.58;;;;;;;11.24;90.95;98037.22;1760841;81;21123;-85
2021/03/30 11:35:17;;;;;;;20.30;14.47;;;;;;;11.26;91.27;98035.15;1763673;81;21245;-85
2021/03/30 11:37:55;;;;;;;;;;;;;;;11.28;91.20;98033.58;1707049;84;21503;-85
2021/03/30 11:40:24;;;;;;;20.00;15.13;;;;;;;11.35;91.50;98032.05;1698174;84;20156;-85
2021/03/30 11:42:53;;;;;;;24.63;15.45;;;;;;;11.42;91.20;98026.84;1703652;84;21166;-85
2021/03/30 11:45:21;;;;;;;21.45;14.65;;;;;;;11.49;91.04;98028.76;1699438;84;21111;-85
2021/03/30 11:47:49;;;;;;;20.90;14.70;;;;;;;11.50;90.51;98019.73;1709266;84;21483;-85
2021/03/30 11:50:17;;;;;;;21.73;14.35;;;;;;;11.53;90.66;98027.73;1727067;82;21532;-85
2021/03/30 11:52:44;;;;;;;21.55;15.50;;;;;;;11.61;90.63;98015.34;1704700;83;21151;-84
2021/03/30 11:55:14;;;;;;;21.07;14.98;;;;;;;11.69;90.53;98024.20;1708936;83;21128;-85
2021/03/30 11:57:43;;;;;;;20.43;13.60;;;;;;;11.76;90.01;98021.34;1699498;84;21514;-85
2021/03/30 12:00:13;;;;;;;21.87;16.00;;;;;;;11.81;90.36;98015.56;1704072;84;21152;-85
2021/03/30 12:02:40;;;;;;;19.23;14.25;;;;;;;11.91;89.88;98006.89;1692774;84;21515;-85